sensor_id;sensor_type;location;lat;lon;timestamp;pressure;altitude;pressure_sealevel;temperature;humidity
22031;BME280;11179;52.106;21.024;2022-08-25T00:02:12;100765.78;;;21.98;63.09
22031;BME280;11179;52.106;21.024;2022-08-25T00:04:38;100753.97;;;21.92;63.42
22031;BME280;11179;52.106;21.024;2022-08-25T00:07:04;100767.63;;;22.02;63.18
22031;BME280;11179;52.106;21.024;2022-08-25T00:09:33;100761.53;;;22.00;63.20
22031;BME280;11179;52.106;21.024;2022-08-25T00:11:59;100755.28;;;22.03;63.14
22031;BME280;11179;52.106;21.024;2022-08-25T00:14:28;100756.13;;;22.04;63.13
22031;BME280;11179;52.106;21.024;2022-08-25T00:16:54;100754.28;;;21.99;63.36
22031;BME280;11179;52.106;21.024;2022-08-25T00:19:22;100755.47;;;22.07;63.16
22031;BME280;11179;52.106;21.024;2022-08-25T00:21:49;100754.66;;;22.06;63.20
22031;BME280;11179;52.106;21.024;2022-08-25T00:24:16;100746.59;;;22.05;63.61
22031;BME280;11179;52.106;21.024;2022-08-25T00:26:45;100731.91;;;21.99;63.85
22031;BME280;11179;52.106;21.024;2022-08-25T00:29:11;100735.53;;;22.00;63.80
22031;BME280;11179;52.106;21.024;2022-08-25T00:31:38;100741.63;;;22.02;63.88
22031;BME280;11179;52.106;21.024;2022-08-25T00:34:06;100743.44;;;21.98;63.67
22031;BME280;11179;52.106;21.024;2022-08-25T00:36:32;100729.44;;;21.98;64.01
22031;BME280;11179;52.106;21.024;2022-08-25T00:38:58;100722.38;;;21.92;63.89
22031;BME280;11179;52.106;21.024;2022-08-25T00:41:24;100731.91;;;21.99;64.08
22031;BME280;11179;52.106;21.024;2022-08-25T00:43:54;100727.66;;;22.02;63.83
22031;BME280;11179;52.106;21.024;2022-08-25T00:46:24;100722.56;;;21.95;64.10
22031;BME280;11179;52.106;21.024;2022-08-25T00:49:05;100723.22;;;22.01;64.25
22031;BME280;11179;52.106;21.024;2022-08-25T00:51:36;100724.84;;;22.02;64.40
22031;BME280;11179;52.106;21.024;2022-08-25T00:54:03;100713.50;;;21.98;64.11
22031;BME280;11179;52.106;21.024;2022-08-25T00:56:30;100728.47;;;22.02;64.40
22031;BME280;11179;52.106;21.024;2022-08-25T00:58:57;100718.75;;;22.00;64.36
22031;BME280;11179;52.106;21.024;2022-08-25T01:01:24;100713.50;;;21.98;64.30
22031;BME280;11179;52.106;21.024;2022-08-25T01:03:50;100724.03;;;22.01;64.60
22031;BME280;11179;52.106;21.024;2022-08-25T01:06:15;100728.47;;;22.02;64.41
22031;BME280;11179;52.106;21.024;2022-08-25T01:08:41;100720.59;;;21.96;64.61
22031;BME280;11179;52.106;21.024;2022-08-25T01:11:08;100722.72;;;21.99;64.57
22031;BME280;11179;52.106;21.024;2022-08-25T01:13:39;100723.03;;;21.97;64.58
22031;BME280;11179;52.106;21.024;2022-08-25T01:16:05;100724.53;;;21.95;64.65
22031;BME280;11179;52.106;21.024;2022-08-25T01:18:43;100714.63;;;21.89;64.71
22031;BME280;11179;52.106;21.024;2022-08-25T01:21:09;100721.22;;;21.93;64.78
22031;BME280;11179;52.106;21.024;2022-08-25T01:23:34;100726.81;;;21.93;64.78
22031;BME280;11179;52.106;21.024;2022-08-25T01:26:16;100721.88;;;21.90;65.42
22031;BME280;11179;52.106;21.024;2022-08-25T01:28:44;100733.41;;;21.97;65.25
22031;BME280;11179;52.106;21.024;2022-08-25T01:31:29;100722.38;;;21.92;65.59
22031;BME280;11179;52.106;21.024;2022-08-25T01:33:55;100722.25;;;21.97;65.73
22031;BME280;11179;52.106;21.024;2022-08-25T01:36:22;100734.91;;;22.03;65.63
22031;BME280;11179;52.106;21.024;2022-08-25T01:38:47;100729.63;;;22.01;65.85
22031;BME280;11179;52.106;21.024;2022-08-25T01:41:16;100732.78;;;22.08;66.08
22031;BME280;11179;52.106;21.024;2022-08-25T01:43:45;100739.66;;;22.11;65.83
22031;BME280;11179;52.106;21.024;2022-08-25T01:46:10;100733.25;;;22.10;65.71
22031;BME280;11179;52.106;21.024;2022-08-25T01:48:36;100728.16;;;22.04;66.03
22031;BME280;11179;52.106;21.024;2022-08-25T01:51:01;100717.13;;;21.99;65.96
22031;BME280;11179;52.106;21.024;2022-08-25T01:53:30;100739.19;;;22.09;66.33
22031;BME280;11179;52.106;21.024;2022-08-25T01:55:56;100732.59;;;22.05;66.20
22031;BME280;11179;52.106;21.024;2022-08-25T01:58:32;100740.34;;;22.08;66.03
22031;BME280;11179;52.106;21.024;2022-08-25T02:01:01;100740.66;;;22.06;66.50
22031;BME280;11179;52.106;21.024;2022-08-25T02:03:29;100723.84;;;21.98;66.15
22031;BME280;11179;52.106;21.024;2022-08-25T02:05:55;100733.91;;;21.99;66.21
22031;BME280;11179;52.106;21.024;2022-08-25T02:08:22;100729.44;;;21.98;66.19
22031;BME280;11179;52.106;21.024;2022-08-25T02:10:48;100729.31;;;22.03;66.56
22031;BME280;11179;52.106;21.024;2022-08-25T02:13:13;100722.56;;;21.95;66.86
22031;BME280;11179;52.106;21.024;2022-08-25T02:15:41;100728.16;;;21.95;66.75
22031;BME280;11179;52.106;21.024;2022-08-25T02:18:07;100724.53;;;21.95;66.81
22031;BME280;11179;52.106;21.024;2022-08-25T02:20:33;100718.25;;;21.89;67.06
22031;BME280;11179;52.106;21.024;2022-08-25T02:22:58;100721.88;;;21.90;66.99
22031;BME280;11179;52.106;21.024;2022-08-25T02:25:24;100720.56;;;21.87;67.18
22031;BME280;11179;52.106;21.024;2022-08-25T02:27:49;100711.00;;;21.79;66.89
22031;BME280;11179;52.106;21.024;2022-08-25T02:30:16;100734.06;;;21.94;67.36
22031;BME280;11179;52.106;21.024;2022-08-25T02:32:42;100724.69;;;21.90;67.39
22031;BME280;11179;52.106;21.024;2022-08-25T02:35:08;100726.31;;;21.91;67.38
22031;BME280;11179;52.106;21.024;2022-08-25T02:37:34;100730.78;;;21.92;67.49
22031;BME280;11179;52.106;21.024;2022-08-25T02:39:59;100722.38;;;21.83;67.57
22031;BME280;11179;52.106;21.024;2022-08-25T02:42:25;100745.25;;;21.94;67.43
22031;BME280;11179;52.106;21.024;2022-08-25T02:44:51;100729.94;;;21.83;67.73
22031;BME280;11179;52.106;21.024;2022-08-25T02:47:18;100728.75;;;21.84;67.87
22031;BME280;11179;52.106;21.024;2022-08-25T02:49:43;100722.19;;;21.79;67.74
22031;BME280;11179;52.106;21.024;2022-08-25T02:52:09;100720.38;;;21.84;67.61
22031;BME280;11179;52.106;21.024;2022-08-25T02:54:35;100724.00;;;21.84;67.72
22031;BME280;11179;52.106;21.024;2022-08-25T02:57:00;100719.41;;;21.79;67.67
22031;BME280;11179;52.106;21.024;2022-08-25T02:59:26;100716.91;;;21.69;68.18
22031;BME280;11179;52.106;21.024;2022-08-25T03:01:52;100713.63;;;21.67;68.02
22031;BME280;11179;52.106;21.024;2022-08-25T03:04:17;100726.78;;;21.75;68.01
22031;BME280;11179;52.106;21.024;2022-08-25T03:06:43;100723.47;;;21.73;68.18
22031;BME280;11179;52.106;21.024;2022-08-25T03:09:08;100729.25;;;21.77;68.06
22031;BME280;11179;52.106;21.024;2022-08-25T03:11:34;100710.97;;;21.71;68.20
22031;BME280;11179;52.106;21.024;2022-08-25T03:14:03;100719.03;;;21.72;68.14
22031;BME280;11179;52.106;21.024;2022-08-25T03:16:28;100712.16;;;21.70;68.15
22031;BME280;11179;52.106;21.024;2022-08-25T03:18:54;100710.84;;;21.76;68.28
22031;BME280;11179;52.106;21.024;2022-08-25T03:21:19;100717.44;;;21.80;68.06
22031;BME280;11179;52.106;21.024;2022-08-25T03:23:45;100715.47;;;21.80;68.35
22031;BME280;11179;52.106;21.024;2022-08-25T03:26:11;100712.81;;;21.75;68.33
22031;BME280;11179;52.106;21.024;2022-08-25T03:28:55;100721.19;;;21.75;68.06
22031;BME280;11179;52.106;21.024;2022-08-25T03:31:22;100711.97;;;21.66;68.09
22031;BME280;11179;52.106;21.024;2022-08-25T03:33:47;100703.91;;;21.65;68.51
22031;BME280;11179;52.106;21.024;2022-08-25T03:36:13;100713.94;;;21.66;68.38
22031;BME280;11179;52.106;21.024;2022-08-25T03:38:40;100724.75;;;21.59;68.37
22031;BME280;11179;52.106;21.024;2022-08-25T03:41:20;100717.84;;;21.56;68.86
22031;BME280;11179;52.106;21.024;2022-08-25T03:43:46;100714.06;;;21.52;68.82
22031;BME280;11179;52.106;21.024;2022-08-25T03:46:19;100714.56;;;21.54;68.96
22031;BME280;11179;52.106;21.024;2022-08-25T03:48:45;100703.81;;;21.48;68.88
22031;BME280;11179;52.106;21.024;2022-08-25T03:51:10;100722.13;;;21.54;69.02
22031;BME280;11179;52.106;21.024;2022-08-25T03:53:36;100713.53;;;21.50;68.79
22031;BME280;11179;52.106;21.024;2022-08-25T03:56:02;100713.19;;;21.43;69.18
22031;BME280;11179;52.106;21.024;2022-08-25T03:58:27;100718.41;;;21.44;69.26
22031;BME280;11179;52.106;21.024;2022-08-25T04:00:53;100715.69;;;21.53;68.83
22031;BME280;11179;52.106;21.024;2022-08-25T04:03:18;100717.19;;;21.59;69.04
22031;BME280;11179;52.106;21.024;2022-08-25T04:05:44;100716.72;;;21.66;68.91
22031;BME280;11179;52.106;21.024;2022-08-25T04:08:10;100715.72;;;21.62;69.03
22031;BME280;11179;52.106;21.024;2022-08-25T04:10:36;100718.50;;;21.62;69.24
22031;BME280;11179;52.106;21.024;2022-08-25T04:13:01;100705.88;;;21.64;69.13
22031;BME280;11179;52.106;21.024;2022-08-25T04:15:26;100706.22;;;21.71;69.07
22031;BME280;11179;52.106;21.024;2022-08-25T04:17:52;100703.13;;;21.82;69.08
22031;BME280;11179;52.106;21.024;2022-08-25T04:20:17;100708.25;;;21.97;68.48
22031;BME280;11179;52.106;21.024;2022-08-25T04:22:43;100703.16;;;22.07;68.50
22031;BME280;11179;52.106;21.024;2022-08-25T04:25:08;100701.50;;;22.15;67.99
22031;BME280;11179;52.106;21.024;2022-08-25T04:27:35;100702.72;;;22.31;67.75
22031;BME280;11179;52.106;21.024;2022-08-25T04:30:00;100700.06;;;22.43;67.65
22031;BME280;11179;52.106;21.024;2022-08-25T04:32:26;100704.50;;;22.62;67.02
22031;BME280;11179;52.106;21.024;2022-08-25T04:34:52;100703.47;;;22.83;66.51
22031;BME280;11179;52.106;21.024;2022-08-25T04:37:17;100699.56;;;22.76;65.86
22031;BME280;11179;52.106;21.024;2022-08-25T04:39:42;100684.69;;;22.84;65.93
22031;BME280;11179;52.106;21.024;2022-08-25T04:42:08;100698.88;;;22.96;65.59
22031;BME280;11179;52.106;21.024;2022-08-25T04:44:33;100702.44;;;23.05;65.79
22031;BME280;11179;52.106;21.024;2022-08-25T04:46:59;100697.66;;;23.14;65.02
22031;BME280;11179;52.106;21.024;2022-08-25T04:49:25;100690.97;;;23.36;64.20
22031;BME280;11179;52.106;21.024;2022-08-25T04:51:50;100692.78;;;23.70;63.58
22031;BME280;11179;52.106;21.024;2022-08-25T04:54:17;100684.69;;;23.77;62.85
22031;BME280;11179;52.106;21.024;2022-08-25T04:56:46;100688.53;;;23.94;62.73
22031;BME280;11179;52.106;21.024;2022-08-25T04:59:13;100693.41;;;24.05;62.02
22031;BME280;11179;52.106;21.024;2022-08-25T05:01:40;100690.47;;;24.22;61.34
22031;BME280;11179;52.106;21.024;2022-08-25T05:04:08;100676.38;;;24.31;60.76
22031;BME280;11179;52.106;21.024;2022-08-25T05:06:35;100691.69;;;24.54;59.85
22031;BME280;11179;52.106;21.024;2022-08-25T05:09:02;100692.31;;;24.60;60.20
22031;BME280;11179;52.106;21.024;2022-08-25T05:11:28;100688.25;;;24.70;59.44
22031;BME280;11179;52.106;21.024;2022-08-25T05:13:55;100694.09;;;24.98;58.69
22031;BME280;11179;52.106;21.024;2022-08-25T05:16:22;100685.91;;;25.17;58.23
22031;BME280;11179;52.106;21.024;2022-08-25T05:18:48;100688.78;;;25.53;57.32
22031;BME280;11179;52.106;21.024;2022-08-25T05:21:16;100702.72;;;25.86;56.50
22031;BME280;11179;52.106;21.024;2022-08-25T05:23:43;100698.69;;;26.12;55.98
22031;BME280;11179;52.106;21.024;2022-08-25T05:26:16;100688.03;;;26.05;55.19
22031;BME280;11179;52.106;21.024;2022-08-25T05:28:41;100694.94;;;26.20;54.34
22031;BME280;11179;52.106;21.024;2022-08-25T05:31:09;100691.53;;;26.14;54.55
22031;BME280;11179;52.106;21.024;2022-08-25T05:33:36;100686.88;;;26.18;53.59
22031;BME280;11179;52.106;21.024;2022-08-25T05:36:03;100684.25;;;26.53;53.63
22031;BME280;11179;52.106;21.024;2022-08-25T05:38:29;100682.50;;;26.89;53.18
22031;BME280;11179;52.106;21.024;2022-08-25T05:40:58;100676.50;;;27.06;52.40
22031;BME280;11179;52.106;21.024;2022-08-25T05:43:24;100672.50;;;27.23;51.44
22031;BME280;11179;52.106;21.024;2022-08-25T05:45:52;100676.31;;;27.30;50.78
22031;BME280;11179;52.106;21.024;2022-08-25T05:48:18;100690.94;;;26.89;50.69
22031;BME280;11179;52.106;21.024;2022-08-25T05:50:56;100688.44;;;27.15;50.36
22031;BME280;11179;52.106;21.024;2022-08-25T05:53:23;100682.78;;;27.47;49.84
22031;BME280;11179;52.106;21.024;2022-08-25T05:55:51;100681.13;;;27.77;49.14
22031;BME280;11179;52.106;21.024;2022-08-25T05:58:19;100690.09;;;27.98;48.71
22031;BME280;11179;52.106;21.024;2022-08-25T06:00:47;100684.91;;;27.85;48.60
22031;BME280;11179;52.106;21.024;2022-08-25T06:03:13;100691.47;;;27.89;48.50
22031;BME280;11179;52.106;21.024;2022-08-25T06:05:38;100694.03;;;27.94;48.41
22031;BME280;11179;52.106;21.024;2022-08-25T06:08:04;100686.22;;;28.22;48.12
22031;BME280;11179;52.106;21.024;2022-08-25T06:10:30;100692.06;;;28.13;47.92
22031;BME280;11179;52.106;21.024;2022-08-25T06:12:56;100688.59;;;28.20;48.10
22031;BME280;11179;52.106;21.024;2022-08-25T06:15:22;100699.28;;;28.30;47.37
22031;BME280;11179;52.106;21.024;2022-08-25T06:17:49;100690.97;;;28.37;46.62
22031;BME280;11179;52.106;21.024;2022-08-25T06:20:19;100703.75;;;28.31;46.68
22031;BME280;11179;52.106;21.024;2022-08-25T06:22:44;100695.50;;;28.23;46.98
22031;BME280;11179;52.106;21.024;2022-08-25T06:25:12;100698.47;;;28.30;46.79
22031;BME280;11179;52.106;21.024;2022-08-25T06:27:38;100697.00;;;28.36;46.80
22031;BME280;11179;52.106;21.024;2022-08-25T06:30:07;100698.25;;;28.19;46.47
22031;BME280;11179;52.106;21.024;2022-08-25T06:32:35;100700.31;;;28.03;46.66
22031;BME280;11179;52.106;21.024;2022-08-25T06:35:05;100692.16;;;28.17;46.46
22031;BME280;11179;52.106;21.024;2022-08-25T06:37:31;100699.66;;;28.29;46.77
22031;BME280;11179;52.106;21.024;2022-08-25T06:39:57;100699.66;;;28.29;46.31
22031;BME280;11179;52.106;21.024;2022-08-25T06:42:23;100704.50;;;27.93;46.59
22031;BME280;11179;52.106;21.024;2022-08-25T06:44:48;100696.06;;;28.12;46.83
22031;BME280;11179;52.106;21.024;2022-08-25T06:47:13;100692.53;;;28.35;46.44
22031;BME280;11179;52.106;21.024;2022-08-25T06:49:41;100704.38;;;28.60;45.93
22031;BME280;11179;52.106;21.024;2022-08-25T06:52:07;100690.56;;;28.97;45.38
22031;BME280;11179;52.106;21.024;2022-08-25T06:54:32;100699.41;;;29.37;44.25
22031;BME280;11179;52.106;21.024;2022-08-25T06:56:58;100692.03;;;29.78;43.52
22031;BME280;11179;52.106;21.024;2022-08-25T06:59:23;100690.66;;;30.55;43.04
22031;BME280;11179;52.106;21.024;2022-08-25T07:01:49;100703.03;;;31.07;41.49
22031;BME280;11179;52.106;21.024;2022-08-25T07:04:14;100700.66;;;31.12;40.59
22031;BME280;11179;52.106;21.024;2022-08-25T07:06:40;100699.59;;;31.24;39.59
22031;BME280;11179;52.106;21.024;2022-08-25T07:09:07;100709.06;;;31.42;39.41
22031;BME280;11179;52.106;21.024;2022-08-25T07:11:33;100710.53;;;31.73;39.10
22031;BME280;11179;52.106;21.024;2022-08-25T07:14:03;100706.06;;;31.72;38.64
22031;BME280;11179;52.106;21.024;2022-08-25T07:16:30;100693.22;;;31.89;38.39
22031;BME280;11179;52.106;21.024;2022-08-25T07:18:56;100693.09;;;32.33;37.98
22031;BME280;11179;52.106;21.024;2022-08-25T07:21:24;100700.22;;;32.82;37.41
22031;BME280;11179;52.106;21.024;2022-08-25T07:23:50;100694.22;;;33.36;36.92
22031;BME280;11179;52.106;21.024;2022-08-25T07:26:20;100701.56;;;33.52;36.37
22031;BME280;11179;52.106;21.024;2022-08-25T07:28:46;100712.06;;;33.23;36.01
22031;BME280;11179;52.106;21.024;2022-08-25T07:31:11;100714.78;;;32.73;35.95
22031;BME280;11179;52.106;21.024;2022-08-25T07:33:38;100712.44;;;32.96;36.34
22031;BME280;11179;52.106;21.024;2022-08-25T07:36:23;100707.16;;;33.06;36.35
22031;BME280;11179;52.106;21.024;2022-08-25T07:38:49;100704.34;;;33.20;36.12
22031;BME280;11179;52.106;21.024;2022-08-25T07:41:14;100701.56;;;33.80;36.04
22031;BME280;11179;52.106;21.024;2022-08-25T07:43:40;100704.38;;;33.73;35.34
22031;BME280;11179;52.106;21.024;2022-08-25T07:46:06;100705.97;;;33.10;34.41
22031;BME280;11179;52.106;21.024;2022-08-25T07:48:31;100709.88;;;32.59;35.68
22031;BME280;11179;52.106;21.024;2022-08-25T07:50:56;100713.06;;;32.51;36.23
22031;BME280;11179;52.106;21.024;2022-08-25T07:53:22;100719.91;;;32.36;36.14
22031;BME280;11179;52.106;21.024;2022-08-25T07:55:47;100714.19;;;32.28;36.06
22031;BME280;11179;52.106;21.024;2022-08-25T07:58:12;100726.22;;;32.08;36.68
22031;BME280;11179;52.106;21.024;2022-08-25T08:01:01;100734.00;;;31.70;37.09
22031;BME280;11179;52.106;21.024;2022-08-25T08:03:26;100713.13;;;31.04;38.25
22031;BME280;11179;52.106;21.024;2022-08-25T08:05:54;100722.81;;;31.03;38.10
22031;BME280;11179;52.106;21.024;2022-08-25T08:08:21;100722.38;;;30.98;37.92
22031;BME280;11179;52.106;21.024;2022-08-25T08:10:46;100729.84;;;31.13;38.20
22031;BME280;11179;52.106;21.024;2022-08-25T08:13:12;100723.41;;;31.19;38.25
22031;BME280;11179;52.106;21.024;2022-08-25T08:15:41;100728.38;;;31.26;38.23
22031;BME280;11179;52.106;21.024;2022-08-25T08:18:06;100723.44;;;31.23;38.41
22031;BME280;11179;52.106;21.024;2022-08-25T08:20:32;100720.06;;;31.47;38.47
22031;BME280;11179;52.106;21.024;2022-08-25T08:22:58;100709.09;;;31.97;38.30
22031;BME280;11179;52.106;21.024;2022-08-25T08:25:24;100720.06;;;32.71;37.37
22031;BME280;11179;52.106;21.024;2022-08-25T08:27:49;100711.31;;;33.47;35.57
22031;BME280;11179;52.106;21.024;2022-08-25T08:30:15;100714.13;;;33.97;33.22
22031;BME280;11179;52.106;21.024;2022-08-25T08:32:40;100717.31;;;34.41;32.51
22031;BME280;11179;52.106;21.024;2022-08-25T08:35:06;100714.41;;;34.56;31.93
22031;BME280;11179;52.106;21.024;2022-08-25T08:37:32;100711.88;;;34.75;32.17
22031;BME280;11179;52.106;21.024;2022-08-25T08:39:57;100716.69;;;34.89;32.65
22031;BME280;11179;52.106;21.024;2022-08-25T08:43:25;100716.72;;;34.82;31.49
22031;BME280;11179;52.106;21.024;2022-08-25T08:45:34;100714.22;;;34.91;31.65
22031;BME280;11179;52.106;21.024;2022-08-25T08:51:23;100714.34;;;34.63;30.82
22031;BME280;11179;52.106;21.024;2022-08-25T08:53:52;100711.03;;;34.86;31.25
22031;BME280;11179;52.106;21.024;2022-08-25T08:56:30;100708.63;;;34.63;30.83
22031;BME280;11179;52.106;21.024;2022-08-25T08:59:02;100707.94;;;34.37;31.43
22031;BME280;11179;52.106;21.024;2022-08-25T09:01:44;100715.78;;;33.87;31.78
22031;BME280;11179;52.106;21.024;2022-08-25T09:04:14;100711.28;;;33.97;31.96
22031;BME280;11179;52.106;21.024;2022-08-25T09:06:47;100703.53;;;34.01;31.50
22031;BME280;11179;52.106;21.024;2022-08-25T09:09:18;100703.50;;;34.26;31.63
22031;BME280;11179;52.106;21.024;2022-08-25T09:15:22;100705.63;;;33.90;31.97
22031;BME280;11179;52.106;21.024;2022-08-25T09:20:06;100711.66;;;34.27;32.13
22031;BME280;11179;52.106;21.024;2022-08-25T09:22:59;100704.31;;;34.23;32.68
22031;BME280;11179;52.106;21.024;2022-08-25T09:25:32;100701.41;;;34.44;32.23
22031;BME280;11179;52.106;21.024;2022-08-25T09:31:02;100705.72;;;34.84;31.54
22031;BME280;11179;52.106;21.024;2022-08-25T09:33:30;100689.59;;;34.46;31.52
22031;BME280;11179;52.106;21.024;2022-08-25T09:35:56;100698.16;;;34.38;31.39
22031;BME280;11179;52.106;21.024;2022-08-25T09:38:22;100691.97;;;34.61;30.18
22031;BME280;11179;52.106;21.024;2022-08-25T09:40:53;100695.56;;;34.80;30.13
22031;BME280;11179;52.106;21.024;2022-08-25T09:45:49;100687.53;;;34.50;29.71
22031;BME280;11179;52.106;21.024;2022-08-25T09:48:29;100688.44;;;34.32;30.15
22031;BME280;11179;52.106;21.024;2022-08-25T09:51:01;100680.34;;;34.06;30.78
22031;BME280;11179;52.106;21.024;2022-08-25T09:53:34;100667.31;;;34.05;31.05
22031;BME280;11179;52.106;21.024;2022-08-25T09:56:03;100678.25;;;34.35;29.82
22031;BME280;11179;52.106;21.024;2022-08-25T09:58:30;100670.06;;;34.44;28.35
22031;BME280;11179;52.106;21.024;2022-08-25T10:03:29;100667.31;;;33.98;28.21
22031;BME280;11179;52.106;21.024;2022-08-25T10:08:35;100664.03;;;34.14;29.54
22031;BME280;11179;52.106;21.024;2022-08-25T10:11:09;100658.66;;;34.37;27.83
22031;BME280;11179;52.106;21.024;2022-08-25T10:13:41;100657.44;;;34.45;28.17
22031;BME280;11179;52.106;21.024;2022-08-25T10:16:23;100656.16;;;34.50;26.69
22031;BME280;11179;52.106;21.024;2022-08-25T10:19:05;100642.22;;;34.69;26.38
22031;BME280;11179;52.106;21.024;2022-08-25T10:21:32;100649.06;;;34.86;25.75
22031;BME280;11179;52.106;21.024;2022-08-25T10:23:58;100641.81;;;34.64;26.08
22031;BME280;11179;52.106;21.024;2022-08-25T10:29:32;100651.84;;;34.06;25.00
22031;BME280;11179;52.106;21.024;2022-08-25T10:32:11;100640.91;;;33.90;24.73
22031;BME280;11179;52.106;21.024;2022-08-25T10:34:51;100649.91;;;33.82;25.78
22031;BME280;11179;52.106;21.024;2022-08-25T10:42:30;100633.19;;;33.69;24.39
22031;BME280;11179;52.106;21.024;2022-08-25T10:48:05;100629.13;;;33.60;24.35
22031;BME280;11179;52.106;21.024;2022-08-25T10:50:42;100629.94;;;33.60;24.67
22031;BME280;11179;52.106;21.024;2022-08-25T10:53:39;100629.97;;;33.53;23.86
22031;BME280;11179;52.106;21.024;2022-08-25T11:04:22;100611.25;;;33.63;24.60
22031;BME280;11179;52.106;21.024;2022-08-25T11:09:32;100597.03;;;33.45;23.80
22031;BME280;11179;52.106;21.024;2022-08-25T11:12:26;100595.41;;;33.51;23.57
22031;BME280;11179;52.106;21.024;2022-08-25T11:14:58;100591.38;;;33.38;23.13
22031;BME280;11179;52.106;21.024;2022-08-25T11:17:27;100603.97;;;33.37;22.77
22031;BME280;11179;52.106;21.024;2022-08-25T11:20:05;100594.19;;;33.20;22.55
22031;BME280;11179;52.106;21.024;2022-08-25T11:22:40;100588.91;;;33.08;23.15
22031;BME280;11179;52.106;21.024;2022-08-25T11:25:29;100583.63;;;33.07;23.62
22031;BME280;11179;52.106;21.024;2022-08-25T11:30:37;100592.16;;;32.82;23.16
22031;BME280;11179;52.106;21.024;2022-08-25T11:33:03;100582.34;;;32.58;23.42
22031;BME280;11179;52.106;21.024;2022-08-25T11:35:48;100583.56;;;32.67;23.49
22031;BME280;11179;52.106;21.024;2022-08-25T11:51:49;100580.38;;;33.01;22.91
22031;BME280;11179;52.106;21.024;2022-08-25T11:54:36;100569.00;;;32.97;23.02
22031;BME280;11179;52.106;21.024;2022-08-25T11:57:07;100575.09;;;32.96;23.03
22031;BME280;11179;52.106;21.024;2022-08-25T12:08:04;100573.03;;;32.75;23.10
22031;BME280;11179;52.106;21.024;2022-08-25T12:16:04;100556.00;;;32.82;23.85
22031;BME280;11179;52.106;21.024;2022-08-25T12:31:51;100570.59;;;32.74;23.98
22031;BME280;11179;52.106;21.024;2022-08-25T12:37:11;100562.03;;;32.49;23.43
22031;BME280;11179;52.106;21.024;2022-08-25T12:39:58;100561.22;;;32.59;24.43
22031;BME280;11179;52.106;21.024;2022-08-25T12:47:52;100559.59;;;32.65;23.27
22031;BME280;11179;52.106;21.024;2022-08-25T12:50:36;100551.91;;;32.62;23.79
22031;BME280;11179;52.106;21.024;2022-08-25T12:53:48;100552.69;;;32.62;23.76
22031;BME280;11179;52.106;21.024;2022-08-25T12:56:19;100536.44;;;32.56;23.64
22031;BME280;11179;52.106;21.024;2022-08-25T13:01:36;100544.97;;;32.56;24.22
22031;BME280;11179;52.106;21.024;2022-08-25T13:09:30;100531.56;;;32.53;23.45
22031;BME280;11179;52.106;21.024;2022-08-25T13:12:20;100532.78;;;32.45;23.04
22031;BME280;11179;52.106;21.024;2022-08-25T13:14:53;100518.53;;;32.38;22.65
22031;BME280;11179;52.106;21.024;2022-08-25T13:17:34;100542.09;;;32.35;22.88
22031;BME280;11179;52.106;21.024;2022-08-25T13:20:23;100534.78;;;32.34;22.37
22031;BME280;11179;52.106;21.024;2022-08-25T13:22:51;100523.44;;;32.34;23.03
22031;BME280;11179;52.106;21.024;2022-08-25T13:25:20;100527.91;;;32.35;22.96
22031;BME280;11179;52.106;21.024;2022-08-25T13:27:53;100535.59;;;32.30;23.05
22031;BME280;11179;52.106;21.024;2022-08-25T13:30:29;100536.41;;;32.27;23.12
22031;BME280;11179;52.106;21.024;2022-08-25T13:32:55;100529.47;;;32.21;22.72
22031;BME280;11179;52.106;21.024;2022-08-25T13:35:25;100528.22;;;32.19;22.81
22031;BME280;11179;52.106;21.024;2022-08-25T13:37:51;100521.28;;;32.09;23.19
22031;BME280;11179;52.106;21.024;2022-08-25T13:40:28;100536.75;;;32.15;23.26
22031;BME280;11179;52.106;21.024;2022-08-25T13:43:14;100521.31;;;32.13;23.50
22031;BME280;11179;52.106;21.024;2022-08-25T13:45:45;100525.75;;;32.10;23.38
22031;BME280;11179;52.106;21.024;2022-08-25T13:48:13;100520.03;;;32.00;23.01
22031;BME280;11179;52.106;21.024;2022-08-25T13:50:40;100511.94;;;31.98;23.41
22031;BME280;11179;52.106;21.024;2022-08-25T13:53:19;100508.28;;;31.94;23.03
22031;BME280;11179;52.106;21.024;2022-08-25T13:55:58;100509.06;;;31.87;22.99
22031;BME280;11179;52.106;21.024;2022-08-25T13:58:29;100521.66;;;31.97;23.32
22031;BME280;11179;52.106;21.024;2022-08-25T14:01:11;100514.75;;;31.98;23.24
22031;BME280;11179;52.106;21.024;2022-08-25T14:03:43;100512.34;;;32.00;23.29
22031;BME280;11179;52.106;21.024;2022-08-25T14:06:29;100511.94;;;32.02;23.63
22031;BME280;11179;52.106;21.024;2022-08-25T14:14:03;100501.38;;;31.91;23.82
22031;BME280;11179;52.106;21.024;2022-08-25T14:16:31;100497.72;;;31.91;24.07
22031;BME280;11179;52.106;21.024;2022-08-25T14:19:00;100503.81;;;31.93;23.96
22031;BME280;11179;52.106;21.024;2022-08-25T14:21:31;100487.53;;;31.79;23.32
22031;BME280;11179;52.106;21.024;2022-08-25T14:23:58;100489.16;;;31.80;23.22
22031;BME280;11179;52.106;21.024;2022-08-25T14:26:24;100490.78;;;31.78;23.26
22031;BME280;11179;52.106;21.024;2022-08-25T14:28:49;100494.38;;;31.75;23.71
22031;BME280;11179;52.106;21.024;2022-08-25T14:31:26;100500.50;;;31.77;23.48
22031;BME280;11179;52.106;21.024;2022-08-25T14:34:01;100497.66;;;31.77;23.27
22031;BME280;11179;52.106;21.024;2022-08-25T14:36:28;100490.69;;;31.71;23.10
22031;BME280;11179;52.106;21.024;2022-08-25T14:38:53;100493.94;;;31.66;23.63